Time;durP1;ratioP1;P1;durP2;ratioP2;P2;SDS_P1;SDS_P2;PMS_P1;PMS_P2;Temp;Humidity;BMP_temperature;BMP_pressure;BME280_temperature;BME280_humidity;BME280_pressure;Samples;Min_cycle;Max_cycle;Signal;HPM_P1;HPM_P2
2022/11/19 00:00:01;;;;;;;5.13;4.60;;;;;;;;;;1752297;80;21020;-44
2022/11/19 00:02:27;;;;;;;7.67;4.40;;;;;;;;;;1750923;80;21822;-45
2022/11/19 00:04:54;;;;;;;5.53;4.03;;;;;;;;;;1748280;80;21043;-45
2022/11/19 00:07:20;;;;;;;6.67;4.63;;;;;;;;;;1747812;79;21513;-45
2022/11/19 00:09:46;;;;;;;5.80;4.67;;;;;;;;;;1753396;80;21063;-44
2022/11/19 00:14:57;;;;;;;3.95;3.20;;;;;;;;;;1751892;80;21934;-44
2022/11/19 00:17:24;;;;;;;5.07;3.83;;;;;;;;;;1754718;80;21490;-44
2022/11/19 00:19:50;;;;;;;6.67;3.43;;;;;;;;;;1755668;80;21661;-45
2022/11/19 00:22:16;;;;;;;4.60;3.40;;;;;;;;;;1749307;80;21051;-45
2022/11/19 00:24:43;;;;;;;3.43;2.67;;;;;;;;;;1751125;80;21095;-46
2022/11/19 00:27:09;;;;;;;4.43;3.20;;;;;;;;;;1749808;80;21828;-45
2022/11/19 00:29:35;;;;;;;3.50;2.33;;;;;;;;;;1751926;80;21044;-45
2022/11/19 00:32:01;;;;;;;3.13;2.20;;;;;;;;;;1751219;80;21251;-45
2022/11/19 00:34:28;;;;;;;2.23;1.80;;;;;;;;;;1757727;80;21028;-45
2022/11/19 00:36:54;;;;;;;2.17;1.50;;;;;;;;;;1750934;80;21055;-45
2022/11/19 00:39:20;;;;;;;2.13;1.27;;;;;;;;;;1746523;80;21839;-45
2022/11/19 00:41:46;;;;;;;1.77;1.47;;;;;;;;;;1739488;80;21252;-45
2022/11/19 00:44:12;;;;;;;1.70;1.30;;;;;;;;;;1741298;80;21191;-46
2022/11/19 00:46:38;;;;;;;1.40;1.30;;;;;;;;;;1743272;80;21502;-45
2022/11/19 00:49:05;;;;;;;1.53;1.20;;;;;;;;;;1743261;80;21067;-46
2022/11/19 00:51:31;;;;;;;1.60;1.07;;;;;;;;;;1745267;80;21916;-46
2022/11/19 00:53:57;;;;;;;1.50;1.10;;;;;;;;;;1741389;80;21757;-45
2022/11/19 00:56:25;;;;;;;1.80;1.50;;;;;;;;;;1740696;80;21024;-46
2022/11/19 00:58:51;;;;;;;1.60;1.10;;;;;;;;;;1712027;82;21045;-46
2022/11/19 01:01:18;;;;;;;1.67;1.20;;;;;;;;;;1711552;82;21079;-46
2022/11/19 01:03:46;;;;;;;1.30;1.10;;;;;;;;;;1743800;80;21948;-46
2022/11/19 01:06:14;;;;;;;1.33;1.20;;;;;;;;;;1743210;80;21068;-46
2022/11/19 01:08:41;;;;;;;1.30;1.00;;;;;;;;;;1742151;80;21053;-46
2022/11/19 01:11:09;;;;;;;1.23;1.03;;;;;;;;;;1742378;80;21076;-46
2022/11/19 01:13:37;;;;;;;1.20;1.10;;;;;;;;;;1744514;80;21049;-45
2022/11/19 01:16:12;;;;;;;1.20;1.00;;;;;;;;;;1743922;80;21834;-46
2022/11/19 01:18:40;;;;;;;1.43;1.23;;;;;;;;;;1744458;80;21044;-46
2022/11/19 01:21:06;;;;;;;1.30;0.90;;;;;;;;;;1743620;80;21012;-46
2022/11/19 01:23:33;;;;;;;1.07;0.97;;;;;;;;;;1743771;80;21097;-46
2022/11/19 01:25:59;;;;;;;2.00;0.90;;;;;;;;;;1742217;80;21034;-47
2022/11/19 01:28:26;;;;;;;1.20;0.97;;;;;;;;;;1745866;80;21829;-47
2022/11/19 01:30:52;;;;;;;1.00;0.80;;;;;;;;;;1742685;80;21049;-47
2022/11/19 01:33:21;;;;;;;1.03;0.90;;;;;;;;;;1740668;80;21148;-48
2022/11/19 01:35:55;;;;;;;1.40;1.00;;;;;;;;;;1740000;80;21049;-48
2022/11/19 01:38:21;;;;;;;2.75;1.05;;;;;;;;;;1750916;79;21112;-48
2022/11/19 01:40:47;;;;;;;1.57;1.00;;;;;;;;;;1758041;79;21705;-47
2022/11/19 01:43:13;;;;;;;1.27;0.97;;;;;;;;;;1763726;79;21687;-47
2022/11/19 01:45:43;;;;;;;1.40;0.90;;;;;;;;;;1759740;79;21159;-48
2022/11/19 01:48:18;;;;;;;1.50;0.93;;;;;;;;;;1763118;79;21506;-49
2022/11/19 01:50:53;;;;;;;1.13;0.80;;;;;;;;;;1763649;79;21026;-49
2022/11/19 01:53:21;;;;;;;1.50;1.20;;;;;;;;;;1759372;79;22464;-49
2022/11/19 01:55:47;;;;;;;1.20;0.90;;;;;;;;;;1760490;79;21511;-49
2022/11/19 01:58:16;;;;;;;1.27;0.87;;;;;;;;;;1759655;79;21071;-49
2022/11/19 02:00:42;;;;;;;1.30;1.00;;;;;;;;;;1758696;79;21051;-49
2022/11/19 02:03:10;;;;;;;1.10;0.83;;;;;;;;;;1763540;79;21041;-49
2022/11/19 02:05:36;;;;;;;1.30;0.90;;;;;;;;;;1761646;79;21889;-49
2022/11/19 02:08:05;;;;;;;1.17;0.80;;;;;;;;;;1725278;81;21058;-49
2022/11/19 02:10:47;;;;;;;1.30;0.90;;;;;;;;;;1758928;79;21027;-48
2022/11/19 02:13:22;;;;;;;1.10;0.90;;;;;;;;;;1736427;79;21023;-48
2022/11/19 02:15:53;;;;;;;1.27;0.77;;;;;;;;;;1759964;79;21788;-47
2022/11/19 02:18:23;;;;;;;1.53;1.00;;;;;;;;;;1761859;79;21959;-49
2022/11/19 02:21:01;;;;;;;1.33;0.70;;;;;;;;;;1756157;79;21038;-50
2022/11/19 02:23:41;;;;;;;1.20;0.80;;;;;;;;;;1763499;79;21039;-49
2022/11/19 02:26:26;;;;;;;1.00;0.70;;;;;;;;;;1759063;79;21035;-49
2022/11/19 02:29:14;;;;;;;0.87;0.70;;;;;;;;;;1761330;79;21046;-49
2022/11/19 02:31:49;;;;;;;1.40;0.80;;;;;;;;;;1760114;79;21197;-48
2022/11/19 02:34:19;;;;;;;0.83;0.70;;;;;;;;;;1751253;79;21197;-48
2022/11/19 02:36:52;;;;;;;0.83;0.63;;;;;;;;;;1764552;79;21008;-48
2022/11/19 02:39:22;;;;;;;0.90;0.60;;;;;;;;;;1763170;79;21098;-48
2022/11/19 02:42:03;;;;;;;0.83;0.60;;;;;;;;;;1773449;79;21034;-48
2022/11/19 02:44:57;;;;;;;0.70;0.50;;;;;;;;;;1770522;79;21550;-48
2022/11/19 02:47:40;;;;;;;0.90;0.60;;;;;;;;;;1769434;79;21078;-47
2022/11/19 02:50:28;;;;;;;0.87;0.60;;;;;;;;;;1768165;79;21496;-48
2022/11/19 02:52:54;;;;;;;0.90;0.60;;;;;;;;;;1752264;79;21532;-49
2022/11/19 02:55:21;;;;;;;0.80;0.60;;;;;;;;;;1716834;80;21075;-48
2022/11/19 02:57:58;;;;;;;0.80;0.60;;;;;;;;;;1767828;79;23309;-48
2022/11/19 03:06:02;;;;;;;0.63;0.47;;;;;;;;;;1765277;79;21659;-48
2022/11/19 03:08:28;;;;;;;1.20;0.67;;;;;;;;;;1770251;79;21593;-48
2022/11/19 03:11:07;;;;;;;1.03;0.70;;;;;;;;;;1769882;79;21870;-48
2022/11/19 03:16:52;;;;;;;0.60;0.40;;;;;;;;;;1768522;79;21670;-49
2022/11/19 03:19:22;;;;;;;0.80;0.60;;;;;;;;;;1770381;79;21519;-48
2022/11/19 03:22:04;;;;;;;0.90;0.60;;;;;;;;;;1766318;79;21066;-49
2022/11/19 03:24:34;;;;;;;0.60;0.50;;;;;;;;;;1760267;79;21843;-48
2022/11/19 03:27:15;;;;;;;0.70;0.60;;;;;;;;;;1771428;79;21042;-48
2022/11/19 03:29:46;;;;;;;1.40;0.70;;;;;;;;;;1769056;79;22064;-48
2022/11/19 03:32:15;;;;;;;0.90;0.50;;;;;;;;;;1769482;79;21046;-48
2022/11/19 03:34:42;;;;;;;2.40;0.50;;;;;;;;;;1771581;79;21490;-48
2022/11/19 03:37:09;;;;;;;0.57;0.40;;;;;;;;;;1768222;79;21827;-48
2022/11/19 03:39:36;;;;;;;0.93;0.50;;;;;;;;;;1776766;79;22359;-48
2022/11/19 03:42:04;;;;;;;0.80;0.60;;;;;;;;;;1768818;79;21085;-48
2022/11/19 03:44:37;;;;;;;0.60;0.40;;;;;;;;;;1770136;79;21083;-48
2022/11/19 03:47:08;;;;;;;0.90;0.60;;;;;;;;;;1768723;79;21080;-47
2022/11/19 03:49:38;;;;;;;3.07;1.83;;;;;;;;;;1773344;79;22508;-48
2022/11/19 03:52:10;;;;;;;1.67;1.23;;;;;;;;;;1769540;79;21082;-48
2022/11/19 03:54:38;;;;;;;1.73;0.93;;;;;;;;;;1765072;79;21061;-47
2022/11/19 03:57:06;;;;;;;0.90;0.70;;;;;;;;;;1765751;79;21050;-47
2022/11/19 03:59:33;;;;;;;0.73;0.60;;;;;;;;;;1767265;79;21062;-48
2022/11/19 04:02:03;;;;;;;0.63;0.40;;;;;;;;;;1770825;79;21830;-48
2022/11/19 04:04:40;;;;;;;0.87;0.53;;;;;;;;;;1768927;79;21509;-48
2022/11/19 04:07:13;;;;;;;0.90;0.50;;;;;;;;;;1769821;79;22328;-48
2022/11/19 04:09:39;;;;;;;0.53;0.40;;;;;;;;;;1768361;79;21544;-48
2022/11/19 04:12:07;;;;;;;0.40;0.30;;;;;;;;;;1765633;79;21085;-48
2022/11/19 04:14:34;;;;;;;0.40;0.40;;;;;;;;;;1767720;79;21820;-48
2022/11/19 04:17:00;;;;;;;0.60;0.40;;;;;;;;;;1770049;79;21222;-48
2022/11/19 04:19:27;;;;;;;0.50;0.40;;;;;;;;;;1771749;79;21366;-48
2022/11/19 04:21:54;;;;;;;0.70;0.50;;;;;;;;;;1774271;80;21512;-49
2022/11/19 04:24:22;;;;;;;1.10;0.50;;;;;;;;;;1771346;79;21468;-48
2022/11/19 04:26:48;;;;;;;0.80;0.50;;;;;;;;;;1766514;79;21934;-48
2022/11/19 04:29:14;;;;;;;0.60;0.40;;;;;;;;;;1768082;79;21026;-48
2022/11/19 04:31:40;;;;;;;0.50;0.40;;;;;;;;;;1769592;79;21031;-49
2022/11/19 04:34:06;;;;;;;0.40;0.30;;;;;;;;;;1768077;79;21090;-48
2022/11/19 04:36:33;;;;;;;0.53;0.40;;;;;;;;;;1775424;79;21039;-48
2022/11/19 04:38:59;;;;;;;0.50;0.40;;;;;;;;;;1769561;79;21912;-48
2022/11/19 04:41:25;;;;;;;0.60;0.50;;;;;;;;;;1766142;79;22493;-48
2022/11/19 04:43:51;;;;;;;0.53;0.33;;;;;;;;;;1769429;79;21022;-49
2022/11/19 04:46:18;;;;;;;0.63;0.50;;;;;;;;;;1767655;79;21065;-48
2022/11/19 04:48:44;;;;;;;1.10;0.70;;;;;;;;;;1763592;79;21523;-48
2022/11/19 04:51:10;;;;;;;1.00;0.70;;;;;;;;;;1772105;79;21808;-48
2022/11/19 04:53:36;;;;;;;1.00;0.57;;;;;;;;;;1775453;79;21103;-48
2022/11/19 04:56:03;;;;;;;1.53;0.50;;;;;;;;;;1766302;79;22167;-48
2022/11/19 04:58:29;;;;;;;0.70;0.50;;;;;;;;;;1770619;79;21085;-49
2022/11/19 05:00:55;;;;;;;0.60;0.40;;;;;;;;;;1768746;79;21626;-49
2022/11/19 05:03:22;;;;;;;1.23;0.43;;;;;;;;;;1772365;79;21807;-48
2022/11/19 05:05:48;;;;;;;0.90;0.50;;;;;;;;;;1767500;80;21364;-49
2022/11/19 05:08:15;;;;;;;0.60;0.50;;;;;;;;;;1771570;79;21416;-48
2022/11/19 05:10:42;;;;;;;0.70;0.50;;;;;;;;;;1771015;79;21054;-49
2022/11/19 05:13:09;;;;;;;1.43;0.50;;;;;;;;;;1772002;79;21047;-49
2022/11/19 05:15:35;;;;;;;0.53;0.47;;;;;;;;;;1775047;79;21813;-48
2022/11/19 05:18:01;;;;;;;0.70;0.50;;;;;;;;;;1767783;79;21028;-49
2022/11/19 05:20:27;;;;;;;0.63;0.40;;;;;;;;;;1769027;79;21640;-49
2022/11/19 05:22:53;;;;;;;0.60;0.40;;;;;;;;;;1770211;79;21070;-48
2022/11/19 05:25:19;;;;;;;0.60;0.40;;;;;;;;;;1770656;79;21053;-48
2022/11/19 05:27:45;;;;;;;0.77;0.60;;;;;;;;;;1770412;79;21856;-49
2022/11/19 05:30:12;;;;;;;0.50;0.40;;;;;;;;;;1767860;79;21296;-48
2022/11/19 05:32:38;;;;;;;0.60;0.53;;;;;;;;;;1771984;79;21086;-49
2022/11/19 05:35:05;;;;;;;0.50;0.40;;;;;;;;;;1773991;80;21050;-48
2022/11/19 05:37:32;;;;;;;0.50;0.43;;;;;;;;;;1772955;79;21531;-49
2022/11/19 05:39:59;;;;;;;0.50;0.40;;;;;;;;;;1773317;79;21560;-48
2022/11/19 05:42:26;;;;;;;0.57;0.53;;;;;;;;;;1769205;79;21012;-48
2022/11/19 05:44:52;;;;;;;0.60;0.50;;;;;;;;;;1770355;79;21336;-48
2022/11/19 05:47:18;;;;;;;1.43;0.90;;;;;;;;;;1768039;79;22168;-49
2022/11/19 05:49:44;;;;;;;0.60;0.60;;;;;;;;;;1766649;79;21092;-49
2022/11/19 05:52:11;;;;;;;1.47;0.60;;;;;;;;;;1774733;79;21838;-49
2022/11/19 05:54:39;;;;;;;1.00;0.60;;;;;;;;;;1769934;79;21043;-49
2022/11/19 05:57:05;;;;;;;1.40;0.60;;;;;;;;;;1768887;79;21579;-49
2022/11/19 05:59:32;;;;;;;0.93;0.53;;;;;;;;;;1773551;79;21035;-49
2022/11/19 06:01:58;;;;;;;0.80;0.60;;;;;;;;;;1773917;79;21023;-48
2022/11/19 06:04:24;;;;;;;1.53;0.60;;;;;;;;;;1771018;79;21880;-49
2022/11/19 06:06:50;;;;;;;1.57;0.60;;;;;;;;;;1774505;80;21084;-49
2022/11/19 06:09:16;;;;;;;1.47;0.87;;;;;;;;;;1772974;79;21170;-49
2022/11/19 06:11:47;;;;;;;1.10;0.87;;;;;;;;;;1766864;79;21059;-48
2022/11/19 06:14:14;;;;;;;2.60;1.20;;;;;;;;;;1765131;79;21038;-48
2022/11/19 06:16:40;;;;;;;4.27;1.20;;;;;;;;;;1768014;79;21761;-48
2022/11/19 06:19:08;;;;;;;1.30;0.90;;;;;;;;;;1760900;79;21050;-47
2022/11/19 06:21:35;;;;;;;1.40;0.80;;;;;;;;;;1762633;79;21092;-47
2022/11/19 06:24:02;;;;;;;1.60;0.90;;;;;;;;;;1768144;79;21105;-47
2022/11/19 06:26:29;;;;;;;4.03;1.50;;;;;;;;;;1767826;79;21062;-47
2022/11/19 06:28:55;;;;;;;6.30;1.70;;;;;;;;;;1761627;79;21815;-47
2022/11/19 06:31:22;;;;;;;5.00;1.17;;;;;;;;;;1766220;79;21067;-47
2022/11/19 06:33:48;;;;;;;1.80;1.30;;;;;;;;;;1768414;79;21024;-47
2022/11/19 06:36:14;;;;;;;1.73;0.90;;;;;;;;;;1764374;79;21520;-48
2022/11/19 06:38:40;;;;;;;5.57;1.20;;;;;;;;;;1765327;79;21019;-47
2022/11/19 06:41:07;;;;;;;3.63;1.40;;;;;;;;;;1764009;79;21916;-47
2022/11/19 06:43:33;;;;;;;5.07;1.70;;;;;;;;;;1763419;79;21070;-47
2022/11/19 06:45:59;;;;;;;4.77;1.47;;;;;;;;;;1760195;79;21079;-47
2022/11/19 06:48:25;;;;;;;5.50;2.33;;;;;;;;;;1761889;79;21540;-47
2022/11/19 06:50:52;;;;;;;5.27;1.73;;;;;;;;;;1765011;79;21382;-47
2022/11/19 06:54:49;;;;;;;3.70;1.47;;;;;;;0.78;100.00;98491.54;1866295;75;27842;-49
2022/11/19 06:57:16;;;;;;;1.60;1.10;;;;;;;0.79;100.00;98511.83;1840919;76;21087;-49
2022/11/19 06:59:42;;;;;;;1.87;1.37;;;;;;;0.80;100.00;98511.37;1837927;77;21814;-49
2022/11/19 09:27:55;;;;;;;2.13;1.20;;;;;;;-144.06;100.00;116433.64;1771692;78;21519;-47
2022/11/19 19:12:19;;;;;;;6.23;2.73;;;;;;;;;;1764487;79;27459;-50
2022/11/19 19:14:47;;;;;;;6.17;3.30;;;;;;;;;;1684176;83;21101;-49
2022/11/19 19:17:15;;;;;;;3.53;3.00;;;;;;;;;;1705409;81;21523;-49
2022/11/19 19:19:42;;;;;;;4.20;2.57;;;;;;;;;;1701775;82;21439;-49
2022/11/19 19:22:08;;;;;;;3.73;2.77;;;;;;;;;;1702427;81;21642;-50
2022/11/19 19:24:36;;;;;;;5.13;3.13;;;;;;;;;;1706914;81;21085;-49
2022/11/19 19:27:02;;;;;;;5.67;3.50;;;;;;;;;;1705033;82;21096;-48
2022/11/19 19:29:29;;;;;;;4.30;3.80;;;;;;;;;;1664256;84;21846;-51
2022/11/19 19:31:56;;;;;;;4.93;4.13;;;;;;;;;;1676385;83;21071;-50
2022/11/19 19:34:23;;;;;;;4.20;3.37;;;;;;;;;;1671031;83;21759;-51
2022/11/19 19:36:49;;;;;;;5.10;3.83;;;;;;;;;;1697531;82;21094;-50
2022/11/19 19:39:15;;;;;;;6.27;4.17;;;;;;;;;;1678146;83;21027;-49
2022/11/19 19:41:42;;;;;;;4.07;3.03;;;;;;;;;;1671164;83;22095;-49
2022/11/19 19:44:09;;;;;;;5.27;3.70;;;;;;;;;;1673457;83;21132;-50
2022/11/19 19:46:35;;;;;;;4.70;3.33;;;;;;;;;;1683871;83;21145;-49
2022/11/19 19:49:01;;;;;;;5.50;3.80;;;;;;;;;;1679626;83;21066;-50
2022/11/19 19:51:28;;;;;;;3.80;3.40;;;;;;;;;;1680088;83;21072;-49
2022/11/19 19:53:55;;;;;;;5.50;4.10;;;;;;;;;;1684388;83;22427;-50
2022/11/19 19:56:23;;;;;;;4.50;3.97;;;;;;;;;;1685127;83;21527;-49
2022/11/19 19:58:50;;;;;;;6.00;3.67;;;;;;;;;;1682978;83;21334;-49
2022/11/19 20:01:21;;;;;;;5.87;3.63;;;;;;;;;;1685004;83;21553;-51
2022/11/19 20:03:47;;;;;;;7.37;5.13;;;;;;;;;;1679884;84;21073;-49
2022/11/19 20:06:15;;;;;;;8.40;5.07;;;;;;;;;;1661932;84;21970;-46
2022/11/19 20:08:42;;;;;;;9.37;4.73;;;;;;;;;;1661260;84;21108;-45
2022/11/19 20:11:11;;;;;;;9.63;7.20;;;;;;;;;;1652390;84;21082;-49
2022/11/19 20:13:39;;;;;;;9.20;6.53;;;;;;;;;;1642874;85;21085;-50
2022/11/19 20:16:14;;;;;;;7.17;5.87;;;;;;;;;;1641773;85;21101;-51
2022/11/19 20:18:42;;;;;;;8.30;5.50;;;;;;;;;;1642545;85;21177;-48
2022/11/19 20:21:12;;;;;;;6.13;4.60;;;;;;;;;;1642226;85;22123;-50
2022/11/19 20:23:40;;;;;;;8.23;4.90;;;;;;;;;;1640231;85;21076;-48
2022/11/19 20:26:09;;;;;;;5.50;4.07;;;;;;;;;;1640444;86;21117;-49
2022/11/19 20:28:37;;;;;;;6.27;4.13;;;;;;;;;;1641748;85;21108;-49
2022/11/19 20:31:15;;;;;;;8.93;5.53;;;;;;;;;;1703263;82;21837;-49
2022/11/19 20:33:42;;;;;;;8.00;4.97;;;;;;;;;;1702352;82;21949;-50
2022/11/19 20:36:09;;;;;;;5.60;4.40;;;;;;;;;;1702058;83;21053;-50
2022/11/19 20:38:40;;;;;;;5.50;4.87;;;;;;;;;;1700422;82;21073;-50
2022/11/19 20:44:18;;;;;;;5.67;4.63;;;;;;;;;;1699119;82;21521;-49
2022/11/19 20:46:21;;;;;;;6.08;3.45;;;;;;;;;;1699315;83;21058;-50
2022/11/19 20:48:47;;;;;;;3.43;3.13;;;;;;;;;;1701157;82;21036;-49
2022/11/19 20:51:15;;;;;;;4.03;2.57;;;;;;;;;;1700447;82;21742;-50
2022/11/19 20:53:41;;;;;;;2.47;1.50;;;;;;;;;;1701960;82;21076;-47
2022/11/19 20:56:07;;;;;;;4.47;2.47;;;;;;;;;;1700685;82;22293;-51
2022/11/19 20:58:34;;;;;;;5.00;3.07;;;;;;;;;;1702415;83;21054;-50
2022/11/19 21:01:05;;;;;;;3.73;2.70;;;;;;;;;;1697262;82;21474;-48
2022/11/19 21:03:32;;;;;;;4.10;3.17;;;;;;;;;;1702943;82;21599;-48
2022/11/19 21:06:00;;;;;;;4.33;3.23;;;;;;;;;;1701539;82;22335;-50
2022/11/19 21:08:27;;;;;;;7.87;4.20;;;;;;;;;;1700772;82;21671;-50
2022/11/19 21:11:00;;;;;;;5.17;3.70;;;;;;;;;;1701224;82;21057;-49
2022/11/19 21:13:26;;;;;;;5.63;4.33;;;;;;;;;;1701170;82;21203;-50
2022/11/19 21:15:54;;;;;;;5.80;4.27;;;;;;;;;;1699829;82;21150;-49
2022/11/19 21:18:20;;;;;;;6.17;4.57;;;;;;;;;;1701909;82;21045;-49
2022/11/19 21:20:47;;;;;;;6.93;5.13;;;;;;;;;;1700810;82;21946;-49
2022/11/19 21:23:14;;;;;;;6.73;4.80;;;;;;;;;;1698978;82;21073;-50
2022/11/19 21:25:40;;;;;;;9.10;6.87;;;;;;;;;;1702194;82;21065;-50
2022/11/19 21:28:07;;;;;;;10.20;6.07;;;;;;;;;;1701577;82;21099;-49
2022/11/19 21:30:33;;;;;;;9.27;6.47;;;;;;;;;;1703198;82;21673;-50
2022/11/19 21:32:59;;;;;;;7.70;6.00;;;;;;;;;;1702795;83;23156;-49
2022/11/19 21:35:26;;;;;;;6.87;5.07;;;;;;;;;;1698934;82;21538;-48
2022/11/19 21:37:52;;;;;;;7.63;6.53;;;;;;;;;;1700662;82;21058;-48
2022/11/19 21:40:18;;;;;;;9.43;6.60;;;;;;;;;;1700974;82;21049;-49
2022/11/19 21:42:44;;;;;;;7.33;5.10;;;;;;;;;;1700122;82;21051;-48
2022/11/19 21:45:10;;;;;;;9.90;6.47;;;;;;;;;;1698939;83;21837;-49
2022/11/19 21:47:39;;;;;;;6.47;4.87;;;;;;;;;;1700100;83;21043;-49
2022/11/19 21:50:07;;;;;;;7.17;5.40;;;;;;;;;;1700592;82;21132;-50
2022/11/19 21:52:33;;;;;;;7.33;5.40;;;;;;;;;;1699955;82;20999;-49
2022/11/19 21:54:59;;;;;;;9.47;6.10;;;;;;;;;;1700654;82;21158;-48
2022/11/19 21:57:25;;;;;;;11.43;7.30;;;;;;;;;;1700268;82;21886;-50
2022/11/19 21:59:51;;;;;;;10.20;7.17;;;;;;;;;;1656580;83;21125;-50
2022/11/19 22:02:18;;;;;;;9.30;5.80;;;;;;;;;;1699474;82;21044;-49
2022/11/19 22:04:44;;;;;;;8.97;6.53;;;;;;;;;;1700025;82;20998;-51
2022/11/19 22:07:10;;;;;;;11.90;7.67;;;;;;;;;;1700232;82;21070;-48
2022/11/19 22:09:36;;;;;;;12.10;8.10;;;;;;;;;;1699236;82;21856;-49
2022/11/19 22:12:04;;;;;;;16.00;8.73;;;;;;;;;;1699806;82;21073;-48
2022/11/19 22:14:30;;;;;;;12.67;7.90;;;;;;;;;;1703906;82;21053;-48
2022/11/19 22:16:57;;;;;;;12.83;8.10;;;;;;;;;;1698482;82;21046;-48
2022/11/19 22:19:23;;;;;;;13.17;8.50;;;;;;;;;;1699990;82;21077;-49
2022/11/19 22:21:49;;;;;;;12.90;8.33;;;;;;;;;;1702376;82;21851;-49
2022/11/19 22:24:15;;;;;;;13.53;7.63;;;;;;;;;;1701835;82;21039;-48
2022/11/19 22:26:42;;;;;;;11.27;6.73;;;;;;;;;;1700363;82;21018;-47
2022/11/19 22:29:08;;;;;;;11.53;7.90;;;;;;;;;;1700302;82;21500;-49
2022/11/19 22:31:35;;;;;;;13.80;7.90;;;;;;;;;;1703069;82;21077;-48
2022/11/19 22:34:01;;;;;;;13.27;8.83;;;;;;;;;;1700254;82;21865;-48
2022/11/19 22:36:29;;;;;;;11.87;7.67;;;;;;;;;;1700835;82;21065;-48
2022/11/19 22:38:57;;;;;;;11.50;7.97;;;;;;;;;;1697743;82;21109;-47
2022/11/19 22:41:24;;;;;;;11.43;7.73;;;;;;;;;;1701381;82;21063;-47
2022/11/19 22:43:50;;;;;;;12.10;8.03;;;;;;;;;;1703129;82;21136;-47
2022/11/19 22:46:16;;;;;;;12.40;7.63;;;;;;;;;;1699921;82;21866;-47
2022/11/19 22:48:43;;;;;;;11.47;6.97;;;;;;;;;;1701985;83;21047;-47
2022/11/19 22:51:21;;;;;;;10.50;6.60;;;;;;;;;;1699400;82;21090;-47
2022/11/19 22:53:48;;;;;;;9.60;6.63;;;;;;;;;;1701782;82;21527;-47
2022/11/19 22:56:17;;;;;;;7.57;5.33;;;;;;;;;;1702264;82;21081;-47
2022/11/19 22:58:44;;;;;;;13.00;5.40;;;;;;;;;;1700892;82;21857;-49
2022/11/19 23:01:16;;;;;;;8.00;4.67;;;;;;;;;;1702940;82;21157;-47
2022/11/19 23:03:44;;;;;;;6.80;4.37;;;;;;;;;;1703600;82;21056;-50
2022/11/19 23:06:10;;;;;;;7.50;5.43;;;;;;;;;;1699983;82;21101;-49
2022/11/19 23:08:37;;;;;;;5.70;4.30;;;;;;;;;;1700289;82;21060;-47
2022/11/19 23:11:05;;;;;;;7.80;4.30;;;;;;;;;;1702674;82;21230;-49
2022/11/19 23:13:34;;;;;;;6.10;4.53;;;;;;;;;;1710595;82;21089;-49
2022/11/19 23:16:09;;;;;;;6.67;3.57;;;;;;;;;;1709550;82;21069;-48
2022/11/19 23:18:37;;;;;;;4.13;3.03;;;;;;;;;;1710012;82;21073;-50
2022/11/19 23:21:13;;;;;;;4.87;3.60;;;;;;;;;;1708952;82;21125;-47
2022/11/19 23:23:40;;;;;;;5.17;3.70;;;;;;;;;;1710289;82;21825;-48
2022/11/19 23:26:07;;;;;;;5.30;3.30;;;;;;;;;;1710636;82;21061;-49
2022/11/19 23:28:34;;;;;;;5.60;4.20;;;;;;;;;;1699774;82;21037;-47
2022/11/19 23:31:05;;;;;;;7.53;4.73;;;;;;;;;;1707123;82;22177;-47
2022/11/19 23:33:31;;;;;;;7.87;3.87;;;;;;;;;;1708960;82;21029;-47
2022/11/19 23:36:05;;;;;;;6.13;3.87;;;;;;;;;;1706045;82;21848;-47
2022/11/19 23:38:31;;;;;;;5.30;3.50;;;;;;;;;;1707677;82;21712;-48
2022/11/19 23:41:01;;;;;;;8.77;3.63;;;;;;;;;;1707282;82;21578;-48
2022/11/19 23:43:27;;;;;;;7.17;3.80;;;;;;;;;;1707639;82;21130;-47
2022/11/19 23:45:55;;;;;;;6.30;3.73;;;;;;;;;;1708531;82;21574;-47
2022/11/19 23:48:21;;;;;;;6.23;4.00;;;;;;;;;;1708735;82;22668;-47
2022/11/19 23:50:47;;;;;;;6.93;3.60;;;;;;;;;;1709435;82;21323;-49
2022/11/19 23:53:14;;;;;;;5.30;3.10;;;;;;;;;;1706849;82;21279;-48
2022/11/19 23:55:46;;;;;;;7.37;3.57;;;;;;;;;;1712101;82;21292;-47
2022/11/19 23:58:12;;;;;;;5.77;3.30;;;;;;;;;;1707810;82;21085;-47
